Time;durP1;ratioP1;P1;durP2;ratioP2;P2;SDS_P1;SDS_P2;PMS_P1;PMS_P2;Temp;Humidity;BMP_temperature;BMP_pressure;BME280_temperature;BME280_humidity;BME280_pressure;Samples;Min_cycle;Max_cycle;Signal;HPM_P1;HPM_P2
2022/10/30 00:00:14;;;;;;;;;;;;;;;15.34;78.44;101733.22;5055642;28;19940;-52
2022/10/30 00:02:40;;;;;;;;;;;;;;;15.34;78.46;101739.38;5052084;28;19984;-49
2022/10/30 00:05:05;;;;;;;;;;;;;;;15.34;78.33;101742.03;5046548;28;19932;-51
2022/10/30 00:07:30;;;;;;;;;;;;;;;15.35;78.41;101738.44;5052644;28;19955;-52
2022/10/30 00:09:56;;;;;;;;;;;;;;;15.35;78.22;101743.72;5049702;28;20353;-51
2022/10/30 00:12:21;;;;;;;;;;;;;;;15.35;78.22;101742.91;5049376;28;19928;-51
2022/10/30 00:14:46;;;;;;;;;;;;;;;15.33;78.32;101735.03;5041066;28;19939;-53
2022/10/30 00:17:11;;;;;;;;;;;;;;;15.31;78.29;101746.69;5042698;28;20050;-51
2022/10/30 00:19:37;;;;;;;;;;;;;;;15.31;78.10;101733.41;5037019;28;19929;-53
2022/10/30 00:22:02;;;;;;;;;;;;;;;15.32;77.92;101737.78;5040261;28;19933;-49
2022/10/30 00:24:28;;;;;;;;;;;;;;;15.29;78.18;101725.53;5040516;28;20421;-55
2022/10/30 00:26:54;;;;;;;;;;;;;;;15.28;78.11;101725.66;5046323;28;19921;-52
2022/10/30 00:29:19;;;;;;;;;;;;;;;15.25;78.26;101721.41;5038070;28;19929;-52
2022/10/30 00:31:44;;;;;;;;;;;;;;;15.23;78.13;101726.78;5038467;28;20040;-50
2022/10/30 00:34:10;;;;;;;;;;;;;;;15.21;78.08;101717.22;5041392;28;19932;-52
2022/10/30 00:36:35;;;;;;;;;;;;;;;15.18;78.17;101720.94;5049184;28;19921;-53
2022/10/30 00:39:00;;;;;;;;;;;;;;;15.17;78.25;101715.69;5039927;28;20479;-49
2022/10/30 00:41:25;;;;;;;;;;;;;;;15.13;78.29;101722.13;5037465;28;20018;-48
2022/10/30 00:43:51;;;;;;;;;;;;;;;15.11;78.20;101719.59;5035159;28;19947;-50
2022/10/30 00:46:16;;;;;;;;;;;;;;;15.11;78.19;101710.78;5037306;28;19917;-53
2022/10/30 00:48:44;;;;;;;;;;;;;;;15.08;78.16;101699.44;5038993;28;19924;-52
2022/10/30 00:51:10;;;;;;;;;;;;;;;15.06;78.32;101701.31;5039989;28;20373;-51
2022/10/30 00:53:35;;;;;;;;;;;;;;;15.02;78.19;101704.25;5037693;28;19970;-52
2022/10/30 00:56:03;;;;;;;;;;;;;;;15.02;78.33;101698.97;5039062;28;19963;-51
2022/10/30 00:58:35;;;;;;;;;;;;;;;14.99;78.38;101707.94;5039275;28;20019;-54
2022/10/30 01:01:02;;;;;;;;;;;;;;;14.98;78.28;101702.72;5038571;28;19929;-48
2022/10/30 01:03:29;;;;;;;;;;;;;;;14.97;78.28;101691.28;5039340;28;19917;-52
2022/10/30 01:05:57;;;;;;;;;;;;;;;14.97;78.15;101683.34;5036723;28;19935;-49
2022/10/30 01:08:23;;;;;;;;;;;;;;;14.93;78.27;101680.00;5039105;28;19960;-51
2022/10/30 01:10:48;;;;;;;;;;;;;;;14.88;78.06;101674.16;5043505;28;20446;-53
2022/10/30 01:13:14;;;;;;;;;;;;;;;14.84;77.99;101677.94;5041707;28;20387;-54
2022/10/30 01:15:45;;;;;;;;;;;;;;;14.82;77.92;101679.81;5039807;28;19920;-53
2022/10/30 01:18:16;;;;;;;;;;;;;;;14.80;77.76;101672.91;5037492;28;20050;-50
2022/10/30 01:21:02;;;;;;;;;;;;;;;14.75;77.74;101673.19;5038253;28;19968;-48
2022/10/30 01:23:42;;;;;;;;;;;;;;;14.72;77.57;101670.75;5037201;28;19917;-53
2022/10/30 01:26:21;;;;;;;;;;;;;;;14.70;77.86;101672.63;5038336;28;19917;-52
2022/10/30 01:28:55;;;;;;;;;;;;;;;14.71;77.83;101663.72;5040467;28;19917;-53
2022/10/30 01:31:23;;;;;;;;;;;;;;;14.70;77.93;101667.31;5038153;28;19982;-53
2022/10/30 01:33:59;;;;;;;;;;;;;;;14.70;78.03;101662.03;5035921;28;19916;-52
2022/10/30 01:36:27;;;;;;;;;;;;;;;14.70;77.94;101657.56;5043106;28;19979;-53
2022/10/30 01:38:55;;;;;;;;;;;;;;;14.68;77.93;101655.97;5038831;28;19929;-53
2022/10/30 01:41:21;;;;;;;;;;;;;;;14.64;77.76;101649.97;5042561;28;19935;-51
2022/10/30 01:43:47;;;;;;;;;;;;;;;14.60;77.40;101651.94;5042600;28;19921;-52
2022/10/30 01:46:42;;;;;;;;;;;;;;;14.55;77.46;101646.09;5036212;28;19936;-52
2022/10/30 01:49:10;;;;;;;;;;;;;;;14.53;77.57;101655.03;4951907;28;20089;-52
2022/10/30 01:51:35;;;;;;;;;;;;;;;14.50;77.66;101656.09;5032908;28;19932;-50
2022/10/30 01:54:22;;;;;;;;;;;;;;;14.47;77.53;101659.78;5036564;28;19925;-49
2022/10/30 01:56:50;;;;;;;;;;;;;;;14.44;77.41;101664.41;5039523;28;20370;-52
2022/10/30 01:59:33;;;;;;;;;;;;;;;14.43;77.45;101670.66;5043523;28;19940;-52
2022/10/30 02:01:59;;;;;;;;;;;;;;;14.32;77.60;101669.47;5045868;28;19916;-52
2022/10/30 02:04:24;;;;;;;;;;;;;;;14.31;77.71;101678.34;5042639;28;20419;-53
2022/10/30 02:06:50;;;;;;;;;;;;;;;14.28;77.86;101673.28;5039221;28;19917;-52
2022/10/30 02:09:16;;;;;;;;;;;;;;;14.25;77.92;101662.84;5037915;28;19921;-52
2022/10/30 02:11:43;;;;;;;;;;;;;;;14.22;78.05;101670.97;5037202;28;19921;-53
2022/10/30 02:14:08;;;;;;;;;;;;;;;14.20;77.95;101666.72;5045651;28;20383;-53
2022/10/30 02:16:36;;;;;;;;;;;;;;;14.18;77.99;101665.00;5045201;28;19975;-52
2022/10/30 02:19:02;;;;;;;;;;;;;;;14.18;77.86;101672.06;5047182;28;20011;-53
2022/10/30 02:21:27;;;;;;;;;;;;;;;14.16;77.90;101679.25;5050274;28;20444;-52
2022/10/30 02:23:52;;;;;;;;;;;;;;;14.15;77.80;101672.25;5040355;28;19921;-53
2022/10/30 02:26:18;;;;;;;;;;;;;;;14.10;77.67;101676.97;5044280;28;20466;-51
2022/10/30 02:28:43;;;;;;;;;;;;;;;14.05;77.86;101676.38;5041316;28;19939;-49
2022/10/30 02:31:08;;;;;;;;;;;;;;;13.99;77.77;101670.50;5041310;28;19931;-51
2022/10/30 02:33:34;;;;;;;;;;;;;;;13.90;77.89;101663.09;5047977;28;19921;-52
2022/10/30 02:35:59;;;;;;;;;;;;;;;13.86;78.04;101662.41;5039587;28;19931;-52
2022/10/30 02:38:24;;;;;;;;;;;;;;;13.84;78.13;101668.75;5042812;28;20324;-51
2022/10/30 02:40:49;;;;;;;;;;;;;;;13.85;78.10;101665.13;5037698;28;20019;-49
2022/10/30 02:43:15;;;;;;;;;;;;;;;13.87;77.93;101665.91;5033817;28;19916;-49
2022/10/30 02:45:40;;;;;;;;;;;;;;;13.87;77.93;101661.47;5043008;28;19928;-52
2022/10/30 02:48:06;;;;;;;;;;;;;;;13.88;77.80;101659.69;5035922;28;19920;-53
2022/10/30 02:50:31;;;;;;;;;;;;;;;13.89;77.81;101656.09;5037004;28;19928;-51
2022/10/30 02:52:57;;;;;;;;;;;;;;;13.91;77.72;101659.50;5034577;28;19929;-54
2022/10/30 02:55:23;;;;;;;;;;;;;;;13.88;77.71;101649.09;5034309;28;20004;-50
2022/10/30 02:57:48;;;;;;;;;;;;;;;13.81;77.77;101651.25;5037839;28;19978;-49
2022/10/30 03:00:13;;;;;;;;;;;;;;;13.78;77.68;101653.22;5043093;28;20026;-50
2022/10/30 03:02:39;;;;;;;;;;;;;;;13.74;77.78;101651.69;5038040;28;19928;-51
2022/10/30 03:05:04;;;;;;;;;;;;;;;13.72;77.93;101651.78;5035496;28;20305;-50
2022/10/30 03:07:29;;;;;;;;;;;;;;;13.68;77.88;101648.47;5037040;28;20018;-53
2022/10/30 03:09:55;;;;;;;;;;;;;;;13.68;77.89;101656.38;5034892;28;19978;-53
2022/10/30 03:12:21;;;;;;;;;;;;;;;13.68;77.89;101659.03;5049540;28;19940;-52
2022/10/30 03:14:46;;;;;;;;;;;;;;;13.64;78.08;101654.84;5035576;28;20032;-54
2022/10/30 03:17:11;;;;;;;;;;;;;;;13.63;78.27;101650.50;5046623;28;19925;-52
2022/10/30 03:19:36;;;;;;;;;;;;;;;13.66;78.20;101649.47;5041559;28;19928;-52
2022/10/30 03:22:02;;;;;;;;;;;;;;;13.67;78.26;101646.75;5037583;28;19924;-52
2022/10/30 03:24:27;;;;;;;;;;;;;;;13.69;78.22;101639.56;5036144;28;19947;-52
2022/10/30 03:26:52;;;;;;;;;;;;;;;13.70;78.21;101646.56;5034590;28;19925;-51
2022/10/30 03:29:18;;;;;;;;;;;;;;;13.68;78.31;101648.47;5033304;28;20481;-50
2022/10/30 03:31:43;;;;;;;;;;;;;;;13.68;78.41;101652.88;5040880;28;19937;-51
2022/10/30 03:34:08;;;;;;;;;;;;;;;13.66;78.24;101647.69;5039386;28;19924;-51
2022/10/30 03:36:34;;;;;;;;;;;;;;;13.64;78.26;101638.97;5039699;28;19928;-52
2022/10/30 03:38:59;;;;;;;;;;;;;;;13.59;78.20;101648.13;5045032;28;20051;-53
2022/10/30 03:41:24;;;;;;;;;;;;;;;13.55;78.33;101650.94;5046479;28;19924;-50
2022/10/30 03:43:50;;;;;;;;;;;;;;;13.54;78.56;101657.16;5044742;28;20300;-52
2022/10/30 03:46:15;;;;;;;;;;;;;;;13.52;78.63;101652.91;5046955;28;20015;-53
2022/10/30 03:48:40;;;;;;;;;;;;;;;13.53;78.66;101658.09;5036927;28;19960;-53
2022/10/30 03:51:06;;;;;;;;;;;;;;;13.53;78.90;101652.81;5040289;28;19925;-52
2022/10/30 03:53:31;;;;;;;;;;;;;;;13.48;78.90;101646.06;5034102;28;19929;-53
2022/10/30 03:56:01;;;;;;;;;;;;;;;13.47;78.94;101645.19;5041106;28;19932;-52
2022/10/30 03:58:27;;;;;;;;;;;;;;;13.51;78.99;101648.53;5043749;28;19928;-52
2022/10/30 04:00:52;;;;;;;;;;;;;;;13.50;78.99;101644.19;5041838;28;19933;-53
2022/10/30 04:03:18;;;;;;;;;;;;;;;13.48;79.06;101646.91;5047000;28;19936;-52
2022/10/30 04:05:43;;;;;;;;;;;;;;;13.45;79.32;101648.88;5043254;28;19916;-52
2022/10/30 04:08:12;;;;;;;;;;;;;;;13.47;79.30;101649.66;5045762;28;19955;-52
2022/10/30 04:10:41;;;;;;;;;;;;;;;13.44;79.49;101649.81;5043557;28;19985;-50
2022/10/30 04:13:07;;;;;;;;;;;;;;;13.49;79.32;101651.25;5044604;28;19920;-52
2022/10/30 04:15:32;;;;;;;;;;;;;;;13.52;79.18;101650.25;5041265;28;19931;-52
2022/10/30 04:17:57;;;;;;;;;;;;;;;13.53;79.10;101646.69;5037837;28;19976;-52
2022/10/30 04:20:24;;;;;;;;;;;;;;;13.54;79.02;101643.94;5038687;28;19925;-55
2022/10/30 04:22:54;;;;;;;;;;;;;;;13.53;78.90;101649.31;5048833;28;20654;-55
2022/10/30 04:25:19;;;;;;;;;;;;;;;13.50;79.23;101649.47;5043344;28;19979;-54
2022/10/30 04:27:44;;;;;;;;;;;;;;;13.47;79.28;101645.19;5037944;28;20382;-51
2022/10/30 04:30:10;;;;;;;;;;;;;;;13.47;79.28;101654.94;5043869;28;20019;-53
2022/10/30 04:32:36;;;;;;;;;;;;;;;13.44;79.30;101658.63;5041977;28;19953;-48
2022/10/30 04:35:03;;;;;;;;;;;;;;;13.45;79.11;101659.44;5039134;28;19921;-52
2022/10/30 04:37:28;;;;;;;;;;;;;;;13.47;78.99;101660.22;5063002;22;20365;-59
2022/10/30 04:39:54;;;;;;;;;;;;;;;13.47;78.96;101661.06;5083048;28;19924;-59
2022/10/30 04:42:19;;;;;;;;;;;;;;;13.49;78.79;101653.06;5079173;28;19924;-58
2022/10/30 04:44:44;;;;;;;;;;;;;;;13.49;78.74;101651.25;5079539;28;20414;-61
2022/10/30 04:47:10;;;;;;;;;;;;;;;13.50;78.60;101649.47;5077813;28;19928;-62
2022/10/30 04:49:35;;;;;;;;;;;;;;;13.50;78.54;101646.84;5075550;28;20440;-63
2022/10/30 04:52:00;;;;;;;;;;;;;;;13.50;78.41;101649.47;5083631;28;19954;-62
2022/10/30 04:54:27;;;;;;;;;;;;;;;13.49;78.39;101651.25;5076936;28;19935;-58
2022/10/30 04:56:52;;;;;;;;;;;;;;;13.47;78.43;101647.00;5078779;28;19942;-60
2022/10/30 04:59:18;;;;;;;;;;;;;;;13.48;78.28;101651.34;5083181;28;19920;-61
2022/10/30 05:01:43;;;;;;;;;;;;;;;13.49;78.29;101647.78;5079613;28;19943;-59
2022/10/30 05:04:08;;;;;;;;;;;;;;;13.50;78.42;101649.47;5076351;28;20035;-59
2022/10/30 05:06:34;;;;;;;;;;;;;;;13.51;78.46;101652.03;5074068;28;20282;-62
2022/10/30 05:08:59;;;;;;;;;;;;;;;13.51;78.60;101651.19;5078497;28;19966;-58
2022/10/30 05:11:24;;;;;;;;;;;;;;;13.52;78.73;101655.53;5083858;28;19928;-59
2022/10/30 05:13:50;;;;;;;;;;;;;;;13.51;78.68;101652.03;5074481;28;20304;-58
2022/10/30 05:16:15;;;;;;;;;;;;;;;13.50;78.70;101657.41;5076323;28;19920;-61
2022/10/30 05:18:40;;;;;;;;;;;;;;;13.47;78.75;101653.13;5079594;28;19927;-58
2022/10/30 05:21:05;;;;;;;;;;;;;;;13.45;78.67;101644.47;5078602;28;20296;-59
2022/10/30 05:23:31;;;;;;;;;;;;;;;13.46;78.75;101642.66;5070320;28;19924;-58
2022/10/30 05:25:58;;;;;;;;;;;;;;;13.46;78.86;101642.66;5074301;28;20023;-58
2022/10/30 05:28:23;;;;;;;;;;;;;;;13.44;78.57;101655.09;5075450;28;20018;-61
2022/10/30 05:30:51;;;;;;;;;;;;;;;13.43;78.46;101650.75;5076355;28;20757;-62
2022/10/30 05:33:16;;;;;;;;;;;;;;;13.39;78.54;101657.97;5074499;28;20014;-61
2022/10/30 05:35:42;;;;;;;;;;;;;;;13.39;78.58;101653.53;5076970;28;20412;-63
2022/10/30 05:38:07;;;;;;;;;;;;;;;13.39;78.56;101653.53;5075203;28;19928;-59
2022/10/30 05:40:33;;;;;;;;;;;;;;;13.45;78.42;101654.16;5074472;28;19920;-59
2022/10/30 05:42:58;;;;;;;;;;;;;;;13.47;78.40;101647.84;5075457;28;19920;-60
2022/10/30 05:45:24;;;;;;;;;;;;;;;13.48;78.31;101640.78;5076239;28;19973;-60
2022/10/30 05:47:59;;;;;;;;;;;;;;;13.51;78.17;101643.25;5075836;28;19920;-60
2022/10/30 05:50:25;;;;;;;;;;;;;;;13.50;77.87;101644.19;5077098;28;20407;-58
2022/10/30 05:53:09;;;;;;;;;;;;;;;13.46;77.84;101643.50;5082875;28;19920;-59
2022/10/30 05:55:36;;;;;;;;;;;;;;;13.44;77.82;101640.09;5077288;28;20121;-59
2022/10/30 05:58:03;;;;;;;;;;;;;;;13.39;77.85;101642.94;5083384;28;19920;-59
2022/10/30 06:00:29;;;;;;;;;;;;;;;13.38;77.74;101643.03;5084541;28;19931;-59
2022/10/30 06:02:58;;;;;;;;;;;;;;;13.35;77.73;101641.44;5080167;28;20365;-59
2022/10/30 06:05:23;;;;;;;;;;;;;;;13.32;77.75;101646.88;5081517;28;19928;-60
2022/10/30 06:07:48;;;;;;;;;;;;;;;13.33;77.63;101648.59;5082358;28;20337;-61
2022/10/30 06:10:14;;;;;;;;;;;;;;;13.31;77.32;101631.97;5082613;28;19928;-60
2022/10/30 06:12:39;;;;;;;;;;;;;;;13.31;77.32;101633.75;5084769;28;19932;-59
2022/10/30 06:15:05;;;;;;;;;;;;;;;13.30;77.25;101638.19;5083484;28;19920;-59
2022/10/30 06:17:30;;;;;;;;;;;;;;;13.29;77.22;101635.63;5082268;28;19916;-58
2022/10/30 06:19:56;;;;;;;;;;;;;;;13.27;77.19;101633.94;5084606;28;20361;-60
2022/10/30 06:22:21;;;;;;;;;;;;;;;13.22;77.17;101630.66;5084520;28;20415;-62
2022/10/30 06:24:46;;;;;;;;;;;;;;;13.24;77.23;101634.09;5082379;28;19932;-59
2022/10/30 06:27:19;;;;;;;;;;;;;;;13.22;77.36;101637.75;5096509;27;19923;-57
2022/10/30 06:29:44;;;;;;;;;;;;;;;13.21;77.45;101634.25;5081164;28;19920;-58
2022/10/30 06:32:09;;;;;;;;;;;;;;;13.22;77.27;101648.34;5081711;28;20042;-58
2022/10/30 06:34:35;;;;;;;;;;;;;;;13.22;77.32;101656.25;5081331;28;19931;-58
2022/10/30 06:37:00;;;;;;;;;;;;;;;13.19;77.39;101656.41;5077743;28;19974;-61
2022/10/30 06:39:25;;;;;;;;;;;;;;;13.17;77.55;101647.72;5083360;28;20375;-61
2022/10/30 06:41:51;;;;;;;;;;;;;;;13.17;77.56;101645.06;5079549;28;19935;-60
2022/10/30 06:44:17;;;;;;;;;;;;;;;13.17;77.55;101640.63;5083935;28;20019;-57
2022/10/30 06:46:42;;;;;;;;;;;;;;;13.19;77.70;101640.56;5082703;28;20446;-61
2022/10/30 06:49:07;;;;;;;;;;;;;;;13.20;77.72;101647.56;5080704;28;19935;-58
2022/10/30 06:51:33;;;;;;;;;;;;;;;13.22;77.59;101656.25;5085392;28;19924;-58
2022/10/30 06:53:58;;;;;;;;;;;;;;;13.27;77.60;101646.28;5079783;28;19921;-59
2022/10/30 06:56:23;;;;;;;;;;;;;;;13.31;77.56;101645.19;5083276;28;19916;-58
2022/10/30 06:58:49;;;;;;;;;;;;;;;13.31;77.45;101649.63;5080893;28;20007;-59
2022/10/30 07:01:14;;;;;;;;;;;;;;;13.29;77.52;101638.28;5074293;28;19921;-61
2022/10/30 07:03:39;;;;;;;;;;;;;;;13.30;77.64;101643.47;5071996;28;19997;-58
2022/10/30 07:06:05;;;;;;;;;;;;;;;13.30;77.86;101651.41;5077583;28;20466;-59
2022/10/30 07:08:31;;;;;;;;;;;;;;;13.33;77.72;101653.88;5071667;28;19947;-60
2022/10/30 07:10:57;;;;;;;;;;;;;;;13.38;77.88;101656.25;5077611;28;19925;-62
2022/10/30 07:13:22;;;;;;;;;;;;;;;13.40;77.79;101654.44;5073132;28;19916;-61
2022/10/30 07:15:48;;;;;;;;;;;;;;;13.43;78.04;101648.09;5065101;28;20437;-61
2022/10/30 07:18:13;;;;;;;;;;;;;;;13.50;78.06;101657.41;5060202;28;19928;-58
2022/10/30 07:20:38;;;;;;;;;;;;;;;13.56;78.20;101657.06;5082189;28;19923;-61
2022/10/30 07:23:04;;;;;;;;;;;;;;;13.60;78.21;101657.75;5082237;28;20027;-59
2022/10/30 07:25:29;;;;;;;;;;;;;;;13.63;78.29;101655.78;5079304;28;19929;-58
2022/10/30 07:27:55;;;;;;;;;;;;;;;13.66;78.49;101645.03;5082024;28;19931;-58
2022/10/30 07:30:21;;;;;;;;;;;;;;;13.71;78.51;101640.31;5082155;28;20581;-58
2022/10/30 07:32:57;;;;;;;;;;;;;;;13.78;78.75;101648.75;5080726;28;20303;-58
2022/10/30 07:35:22;;;;;;;;;;;;;;;13.85;78.79;101644.84;5075538;28;19920;-58
2022/10/30 07:37:47;;;;;;;;;;;;;;;13.92;78.89;101640.06;5076058;28;19916;-60
2022/10/30 07:40:13;;;;;;;;;;;;;;;14.00;78.81;101636.97;5073361;28;19928;-58
2022/10/30 07:42:38;;;;;;;;;;;;;;;14.05;78.98;101626.97;5069953;28;20383;-58
2022/10/30 07:45:04;;;;;;;;;;;;;;;14.14;78.87;101628.22;5070398;28;19932;-61
2022/10/30 07:47:29;;;;;;;;;;;;;;;14.21;79.08;101618.97;5065098;28;19925;-58
2022/10/30 07:49:54;;;;;;;;;;;;;;;14.29;78.90;101616.69;5071758;28;20410;-58
2022/10/30 07:52:19;;;;;;;;;;;;;;;14.36;79.09;101619.00;5069467;28;20485;-58
2022/10/30 07:54:45;;;;;;;;;;;;;;;14.42;79.00;101616.00;5064858;28;19951;-58
2022/10/30 07:57:10;;;;;;;;;;;;;;;14.47;79.04;101609.47;5068299;28;19931;-59
2022/10/30 07:59:35;;;;;;;;;;;;;;;14.52;79.19;101609.19;5069877;28;20451;-58
2022/10/30 08:02:00;;;;;;;;;;;;;;;14.58;78.94;101608.81;5067017;28;20030;-58
2022/10/30 08:04:26;;;;;;;;;;;;;;;14.63;78.84;101604.06;5069648;28;19920;-58
2022/10/30 08:06:52;;;;;;;;;;;;;;;14.69;78.86;101604.69;5068580;28;20011;-59
2022/10/30 08:09:17;;;;;;;;;;;;;;;14.73;78.90;101603.56;5068786;28;19928;-58
2022/10/30 08:11:42;;;;;;;;;;;;;;;14.79;78.97;101605.81;5069681;28;20291;-58
2022/10/30 08:14:07;;;;;;;;;;;;;;;14.85;78.76;101607.22;5072852;28;20063;-61
2022/10/30 08:16:33;;;;;;;;;;;;;;;14.88;78.85;101613.22;5064960;28;19925;-59
2022/10/30 08:18:58;;;;;;;;;;;;;;;14.96;78.72;101611.88;5073138;28;19921;-61
2022/10/30 08:21:23;;;;;;;;;;;;;;;15.01;78.47;101618.59;5066914;28;20286;-58
2022/10/30 08:23:50;;;;;;;;;;;;;;;15.07;78.41;101617.34;5068174;28;20394;-60
2022/10/30 08:26:15;;;;;;;;;;;;;;;15.13;78.13;101611.66;5072831;28;19938;-59
2022/10/30 08:28:41;;;;;;;;;;;;;;;15.18;78.15;101614.00;5067934;28;20019;-61
2022/10/30 08:31:06;;;;;;;;;;;;;;;15.21;78.02;101619.97;5070602;28;20295;-58
2022/10/30 08:33:31;;;;;;;;;;;;;;;15.23;77.96;101610.13;5068633;28;19920;-58
2022/10/30 08:35:58;;;;;;;;;;;;;;;15.28;77.97;101624.91;5069542;28;19920;-59
2022/10/30 08:38:23;;;;;;;;;;;;;;;15.31;77.95;101619.41;5061475;28;19920;-59
2022/10/30 08:40:49;;;;;;;;;;;;;;;15.33;78.21;101620.16;5064059;28;19923;-59
2022/10/30 08:43:14;;;;;;;;;;;;;;;15.34;78.16;101620.03;5071139;28;19927;-59
2022/10/30 08:45:40;;;;;;;;;;;;;;;15.36;78.31;101618.16;5072322;28;19921;-60
2022/10/30 08:48:06;;;;;;;;;;;;;;;15.41;78.32;101625.81;5071443;28;20019;-58
2022/10/30 08:50:32;;;;;;;;;;;;;;;15.44;78.36;101622.09;5063350;28;19971;-58
2022/10/30 08:53:01;;;;;;;;;;;;;;;15.46;78.54;101634.34;5064424;28;19924;-58
2022/10/30 08:55:27;;;;;;;;;;;;;;;15.50;78.42;101635.81;5064490;28;19924;-59
2022/10/30 08:57:52;;;;;;;;;;;;;;;15.55;78.46;101632.88;5064712;28;19920;-59
2022/10/30 09:00:18;;;;;;;;;;;;;;;15.58;78.33;101635.31;5073111;28;19916;-58
2022/10/30 09:02:44;;;;;;;;;;;;;;;15.58;78.74;101632.66;5066693;28;20379;-61
2022/10/30 09:05:09;;;;;;;;;;;;;;;15.62;78.46;101634.19;5069412;28;20366;-59
2022/10/30 09:07:35;;;;;;;;;;;;;;;15.64;78.42;101632.28;5064808;28;19952;-59
2022/10/30 09:10:00;;;;;;;;;;;;;;;15.65;78.28;101630.50;5061054;28;19958;-58
2022/10/30 09:12:25;;;;;;;;;;;;;;;15.66;78.03;101629.50;5068271;28;19952;-59
2022/10/30 09:14:51;;;;;;;;;;;;;;;15.67;77.91;101626.78;5064207;28;19932;-59
2022/10/30 09:17:16;;;;;;;;;;;;;;;15.67;78.04;101625.91;5063329;28;20019;-58
2022/10/30 09:19:41;;;;;;;;;;;;;;;15.68;78.07;101632.91;5071273;28;19995;-59
2022/10/30 09:22:07;;;;;;;;;;;;;;;15.68;78.00;101633.78;5065360;28;19921;-59
2022/10/30 09:24:32;;;;;;;;;;;;;;;15.69;78.12;101639.94;5070086;28;19932;-60
2022/10/30 09:26:57;;;;;;;;;;;;;;;15.72;78.09;101637.09;5068106;28;20359;-59
2022/10/30 09:29:23;;;;;;;;;;;;;;;15.73;78.33;101641.44;5069598;28;19927;-57
2022/10/30 09:31:48;;;;;;;;;;;;;;;15.75;78.36;101647.50;5067075;28;19965;-59
2022/10/30 09:34:14;;;;;;;;;;;;;;;15.80;78.39;101642.75;5068680;28;19923;-60
2022/10/30 09:36:42;;;;;;;;;;;;;;;15.82;78.54;101645.28;5066763;28;20402;-59
2022/10/30 09:39:08;;;;;;;;;;;;;;;15.87;78.45;101637.06;5067015;28;19921;-60
2022/10/30 09:41:36;;;;;;;;;;;;;;;15.91;78.58;101634.09;5068754;28;20015;-59
2022/10/30 09:44:37;;;;;;;;;;;;;;;15.95;78.34;101645.38;5058411;28;19964;-59
2022/10/30 09:47:02;;;;;;;;;;;;;;;15.98;78.29;101645.16;5046210;28;19928;-59
2022/10/30 09:49:30;;;;;;;;;;;;;;;16.01;78.48;101644.97;5064332;28;19917;-57
2022/10/30 09:52:07;;;;;;;;;;;;;;;16.04;78.03;101643.88;5061894;28;20291;-58
2022/10/30 09:54:52;;;;;;;;;;;;;;;16.07;77.92;101644.56;5065285;28;19973;-60
2022/10/30 09:57:18;;;;;;;;;;;;;;;16.12;77.89;101642.44;5064436;28;19920;-58
2022/10/30 09:59:43;;;;;;;;;;;;;;;16.19;77.82;101655.31;5061372;28;19977;-61
2022/10/30 10:02:27;;;;;;;;;;;;;;;16.23;77.68;101647.03;5064978;28;20393;-59
2022/10/30 10:04:56;;;;;;;;;;;;;;;16.30;77.83;101644.81;5065506;28;19916;-61
2022/10/30 10:07:22;;;;;;;;;;;;;;;16.38;77.46;101644.28;5065167;28;19956;-59
2022/10/30 10:09:50;;;;;;;;;;;;;;;16.46;77.25;101637.50;5067223;28;20355;-60
2022/10/30 10:12:34;;;;;;;;;;;;;;;16.54;77.00;101641.44;5062900;28;20006;-59
2022/10/30 10:15:03;;;;;;;;;;;;;;;16.62;76.77;101628.47;5065066;28;20015;-60
2022/10/30 10:17:36;;;;;;;;;;;;;;;16.69;76.76;101628.88;5063419;28;19920;-58
2022/10/30 10:20:04;;;;;;;;;;;;;;;16.75;76.54;101628.47;5060986;28;19964;-59
2022/10/30 10:22:46;;;;;;;;;;;;;;;16.82;76.46;101629.72;5059466;28;19982;-58
2022/10/30 10:25:13;;;;;;;;;;;;;;;16.90;76.00;101619.41;5063281;28;19924;-59
2022/10/30 10:27:46;;;;;;;;;;;;;;;16.95;75.72;101624.44;5064381;28;19916;-59
2022/10/30 10:30:19;;;;;;;;;;;;;;;17.00;75.82;101622.31;5061091;28;19936;-58
2022/10/30 10:32:47;;;;;;;;;;;;;;;17.02;75.24;101615.03;5063070;28;19916;-58
2022/10/30 10:35:12;;;;;;;;;;;;;;;17.06;74.96;101616.53;5067090;28;19952;-59
2022/10/30 10:37:42;;;;;;;;;;;;;;;17.08;75.20;101612.91;5060656;28;20002;-59
2022/10/30 10:40:14;;;;;;;;;;;;;;;17.12;75.29;101609.09;5064100;28;19966;-60
2022/10/30 10:42:52;;;;;;;;;;;;;;;17.12;75.07;101606.44;5066334;28;20095;-62
2022/10/30 10:45:43;;;;;;;;;;;;;;;17.13;74.81;101594.84;5061061;28;20285;-58
2022/10/30 10:48:24;;;;;;;;;;;;;;;17.15;75.13;101592.91;5041973;28;19935;-59
2022/10/30 10:50:55;;;;;;;;;;;;;;;17.15;74.88;101585.78;5061983;28;19920;-60
2022/10/30 10:53:23;;;;;;;;;;;;;;;17.17;74.82;101588.31;5064556;28;19924;-58
2022/10/30 10:55:51;;;;;;;;;;;;;;;17.17;74.91;101580.34;5062321;28;19920;-59
2022/10/30 10:58:35;;;;;;;;;;;;;;;17.17;74.67;101575.88;5059391;28;19920;-58
2022/10/30 11:01:01;;;;;;;;;;;;;;;17.18;74.84;101574.06;5064797;28;20004;-61
2022/10/30 11:03:44;;;;;;;;;;;;;;;17.18;74.61;101574.06;5061453;28;20369;-59
2022/10/30 11:06:10;;;;;;;;;;;;;;;17.18;74.45;101572.25;5063849;28;19923;-58
2022/10/30 11:08:36;;;;;;;;;;;;;;;17.20;74.45;101566.81;5062088;28;19916;-58
2022/10/30 11:11:02;;;;;;;;;;;;;;;17.22;74.75;101564.91;5064626;28;20008;-59
2022/10/30 11:13:29;;;;;;;;;;;;;;;17.23;74.48;101563.94;5066759;28;19952;-58
2022/10/30 11:16:30;;;;;;;;;;;;;;;17.24;73.95;101560.31;5062907;28;20421;-59
2022/10/30 11:18:58;;;;;;;;;;;;;;;17.27;73.55;101559.25;5044999;28;19953;-61
2022/10/30 11:21:25;;;;;;;;;;;;;;;17.28;73.52;101558.28;5069039;28;19923;-62
2022/10/30 11:23:50;;;;;;;;;;;;;;;17.30;73.66;101551.91;5066930;28;20023;-59
2022/10/30 11:26:15;;;;;;;;;;;;;;;17.34;73.34;101549.88;5067009;28;20502;-58
2022/10/30 11:28:48;;;;;;;;;;;;;;;17.35;72.84;101555.06;5065549;28;20241;-59
2022/10/30 11:31:22;;;;;;;;;;;;;;;17.37;72.45;101554.97;5068973;28;19938;-60
2022/10/30 11:33:47;;;;;;;;;;;;;;;17.42;72.02;101549.31;5064264;28;19924;-58
2022/10/30 11:36:14;;;;;;;;;;;;;;;17.43;71.54;101537.69;5066639;28;19921;-59
2022/10/30 11:38:40;;;;;;;;;;;;;;;17.47;71.86;101544.50;5070596;28;19916;-58
2022/10/30 11:41:05;;;;;;;;;;;;;;;17.50;71.75;101546.91;5065166;28;19920;-59
2022/10/30 11:43:30;;;;;;;;;;;;;;;17.52;71.58;101543.19;5060510;28;19928;-59
2022/10/30 11:45:56;;;;;;;;;;;;;;;17.58;71.74;101541.00;5066136;28;19947;-58
2022/10/30 11:48:29;;;;;;;;;;;;;;;17.60;71.81;101529.31;5066420;28;20385;-59
2022/10/30 11:50:58;;;;;;;;;;;;;;;17.62;71.55;101538.00;5072396;28;19940;-61
2022/10/30 11:53:29;;;;;;;;;;;;;;;17.66;71.65;101538.63;5060515;28;19931;-58
2022/10/30 11:55:55;;;;;;;;;;;;;;;17.71;71.48;101535.63;5064699;28;20035;-61
2022/10/30 11:58:27;;;;;;;;;;;;;;;17.73;71.25;101534.53;5063854;28;20036;-61
2022/10/30 12:01:11;;;;;;;;;;;;;;;17.78;71.39;101536.84;5065419;28;19971;-59
2022/10/30 12:03:39;;;;;;;;;;;;;;;17.81;71.43;101525.97;5070737;28;19916;-58
2022/10/30 12:06:10;;;;;;;;;;;;;;;17.85;71.20;101538.09;5064480;28;19942;-60
2022/10/30 12:08:36;;;;;;;;;;;;;;;17.89;71.31;101544.88;5062018;28;20383;-59
2022/10/30 12:11:03;;;;;;;;;;;;;;;17.95;70.87;101546.22;5064632;28;19930;-60
2022/10/30 12:13:31;;;;;;;;;;;;;;;18.00;70.73;101544.06;5070075;28;20302;-59
2022/10/30 12:16:05;;;;;;;;;;;;;;;18.06;70.32;101543.59;5058128;28;20395;-58
2022/10/30 12:18:31;;;;;;;;;;;;;;;18.14;70.30;101545.69;5071300;28;19916;-58
2022/10/30 12:20:57;;;;;;;;;;;;;;;18.20;69.97;101547.88;5070509;28;19919;-58
2022/10/30 12:23:24;;;;;;;;;;;;;;;18.25;69.41;101545.69;5056384;28;19949;-58
2022/10/30 12:25:54;;;;;;;;;;;;;;;18.30;69.59;101540.03;5066782;28;19946;-59
2022/10/30 12:28:21;;;;;;;;;;;;;;;18.35;69.59;101547.66;5065905;28;19920;-59
2022/10/30 12:30:53;;;;;;;;;;;;;;;18.38;69.79;101550.06;5067574;28;19974;-59
2022/10/30 12:33:37;;;;;;;;;;;;;;;18.43;69.61;101550.56;5063678;28;19956;-61
2022/10/30 12:36:05;;;;;;;;;;;;;;;18.50;69.65;101543.78;5065832;28;19927;-59